sensor_id;sensor_type;location;lat;lon;timestamp;temperature;humidity
32506;DHT22;18955;51.224;8.482;2023-03-03T00:01:33;6.80;62.40
32506;DHT22;18955;51.224;8.482;2023-03-03T00:03:59;6.60;63.00
32506;DHT22;18955;51.224;8.482;2023-03-03T00:06:26;6.90;62.30
32506;DHT22;18955;51.224;8.482;2023-03-03T00:08:52;6.80;62.30
32506;DHT22;18955;51.224;8.482;2023-03-03T00:11:18;6.70;62.80
32506;DHT22;18955;51.224;8.482;2023-03-03T00:13:48;6.70;62.70
32506;DHT22;18955;51.224;8.482;2023-03-03T00:16:30;6.90;62.10
32506;DHT22;18955;51.224;8.482;2023-03-03T00:18:57;6.60;62.20
32506;DHT22;18955;51.224;8.482;2023-03-03T00:23:51;6.80;62.20
32506;DHT22;18955;51.224;8.482;2023-03-03T00:28:50;6.50;62.70
32506;DHT22;18955;51.224;8.482;2023-03-03T00:31:19;6.70;62.10
32506;DHT22;18955;51.224;8.482;2023-03-03T00:33:51;6.80;61.70
32506;DHT22;18955;51.224;8.482;2023-03-03T00:36:40;6.60;62.30
32506;DHT22;18955;51.224;8.482;2023-03-03T00:41:44;6.70;61.90
32506;DHT22;18955;51.224;8.482;2023-03-03T00:44:45;6.50;62.30
32506;DHT22;18955;51.224;8.482;2023-03-03T00:49:38;6.70;61.90
32506;DHT22;18955;51.224;8.482;2023-03-03T00:52:17;6.60;62.10
32506;DHT22;18955;51.224;8.482;2023-03-03T00:54:44;6.40;63.30
32506;DHT22;18955;51.224;8.482;2023-03-03T00:57:11;6.80;61.90
32506;DHT22;18955;51.224;8.482;2023-03-03T00:59:41;6.60;61.70
32506;DHT22;18955;51.224;8.482;2023-03-03T01:02:08;6.40;62.60
32506;DHT22;18955;51.224;8.482;2023-03-03T01:04:35;6.60;62.20
32506;DHT22;18955;51.224;8.482;2023-03-03T01:07:01;6.50;61.90
32506;DHT22;18955;51.224;8.482;2023-03-03T01:09:28;6.30;62.30
32506;DHT22;18955;51.224;8.482;2023-03-03T01:11:54;6.50;62.30
32506;DHT22;18955;51.224;8.482;2023-03-03T01:14:21;6.60;61.90
32506;DHT22;18955;51.224;8.482;2023-03-03T01:16:47;6.40;62.10
32506;DHT22;18955;51.224;8.482;2023-03-03T01:19:17;6.40;62.60
32506;DHT22;18955;51.224;8.482;2023-03-03T01:21:43;6.60;61.80
32506;DHT22;18955;51.224;8.482;2023-03-03T01:24:15;6.40;61.90
32506;DHT22;18955;51.224;8.482;2023-03-03T01:26:42;6.30;62.70
32506;DHT22;18955;51.224;8.482;2023-03-03T01:29:09;6.50;62.10
32506;DHT22;18955;51.224;8.482;2023-03-03T01:31:35;6.50;61.90
32506;DHT22;18955;51.224;8.482;2023-03-03T01:34:01;6.30;62.30
32506;DHT22;18955;51.224;8.482;2023-03-03T01:36:28;6.40;62.60
32506;DHT22;18955;51.224;8.482;2023-03-03T01:38:55;6.60;61.60
32506;DHT22;18955;51.224;8.482;2023-03-03T01:41:21;6.40;61.90
32506;DHT22;18955;51.224;8.482;2023-03-03T01:43:49;6.20;62.40
32506;DHT22;18955;51.224;8.482;2023-03-03T01:48:57;6.40;61.80
32506;DHT22;18955;51.224;8.482;2023-03-03T01:51:34;6.30;62.40
32506;DHT22;18955;51.224;8.482;2023-03-03T01:54:08;6.40;62.10
32506;DHT22;18955;51.224;8.482;2023-03-03T01:56:38;6.40;61.80
32506;DHT22;18955;51.224;8.482;2023-03-03T01:59:08;6.20;62.30
32506;DHT22;18955;51.224;8.482;2023-03-03T02:01:38;6.30;62.40
32506;DHT22;18955;51.224;8.482;2023-03-03T02:04:04;6.80;61.90
32506;DHT22;18955;51.224;8.482;2023-03-03T02:06:35;6.30;61.90
32506;DHT22;18955;51.224;8.482;2023-03-03T02:09:06;6.20;62.30
32506;DHT22;18955;51.224;8.482;2023-03-03T02:11:37;6.50;61.40
32506;DHT22;18955;51.224;8.482;2023-03-03T02:14:05;6.30;61.30
32506;DHT22;18955;51.224;8.482;2023-03-03T02:16:31;6.10;62.10
32506;DHT22;18955;51.224;8.482;2023-03-03T02:18:59;6.30;61.60
32506;DHT22;18955;51.224;8.482;2023-03-03T02:21:26;6.40;61.50
32506;DHT22;18955;51.224;8.482;2023-03-03T02:24:05;6.10;61.80
32506;DHT22;18955;51.224;8.482;2023-03-03T02:26:41;6.20;62.10
32506;DHT22;18955;51.224;8.482;2023-03-03T02:29:10;6.30;61.40
32506;DHT22;18955;51.224;8.482;2023-03-03T02:31:37;6.10;62.00
32506;DHT22;18955;51.224;8.482;2023-03-03T02:34:04;6.20;62.20
32506;DHT22;18955;51.224;8.482;2023-03-03T02:36:34;6.30;61.30
32506;DHT22;18955;51.224;8.482;2023-03-03T02:39:11;6.20;61.60
32506;DHT22;18955;51.224;8.482;2023-03-03T02:44:44;6.40;61.30
32506;DHT22;18955;51.224;8.482;2023-03-03T02:47:10;6.20;61.50
32506;DHT22;18955;51.224;8.482;2023-03-03T02:49:37;6.00;62.00
32506;DHT22;18955;51.224;8.482;2023-03-03T02:52:05;6.30;61.40
32506;DHT22;18955;51.224;8.482;2023-03-03T02:54:33;6.20;61.30
32506;DHT22;18955;51.224;8.482;2023-03-03T02:57:02;6.00;62.00
32506;DHT22;18955;51.224;8.482;2023-03-03T02:59:28;6.20;61.60
32506;DHT22;18955;51.224;8.482;2023-03-03T03:01:57;6.20;61.30
32506;DHT22;18955;51.224;8.482;2023-03-03T03:04:24;6.00;61.70
32506;DHT22;18955;51.224;8.482;2023-03-03T03:06:53;6.10;61.80
32506;DHT22;18955;51.224;8.482;2023-03-03T03:09:22;6.30;61.20
32506;DHT22;18955;51.224;8.482;2023-03-03T03:11:51;6.00;61.50
32506;DHT22;18955;51.224;8.482;2023-03-03T03:14:20;5.90;61.90
32506;DHT22;18955;51.224;8.482;2023-03-03T03:16:46;6.20;61.10
32506;DHT22;18955;51.224;8.482;2023-03-03T03:19:12;6.10;61.30
32506;DHT22;18955;51.224;8.482;2023-03-03T03:21:40;5.90;61.70
32506;DHT22;18955;51.224;8.482;2023-03-03T03:24:07;6.20;61.20
32506;DHT22;18955;51.224;8.482;2023-03-03T03:26:35;6.20;61.00
32506;DHT22;18955;51.224;8.482;2023-03-03T03:29:02;5.90;61.60
32506;DHT22;18955;51.224;8.482;2023-03-03T03:31:28;6.00;61.80
32506;DHT22;18955;51.224;8.482;2023-03-03T03:33:55;6.10;61.00
32506;DHT22;18955;51.224;8.482;2023-03-03T03:36:23;5.90;61.30
32506;DHT22;18955;51.224;8.482;2023-03-03T03:38:50;5.90;61.90
32506;DHT22;18955;51.224;8.482;2023-03-03T03:41:17;6.10;60.90
32506;DHT22;18955;51.224;8.482;2023-03-03T03:43:43;6.00;61.00
32506;DHT22;18955;51.224;8.482;2023-03-03T03:46:09;5.80;61.70
32506;DHT22;18955;51.224;8.482;2023-03-03T03:48:36;6.00;61.20
32506;DHT22;18955;51.224;8.482;2023-03-03T03:51:04;6.00;61.10
32506;DHT22;18955;51.224;8.482;2023-03-03T03:53:31;5.80;61.60
32506;DHT22;18955;51.224;8.482;2023-03-03T03:55:58;5.90;61.50
32506;DHT22;18955;51.224;8.482;2023-03-03T03:58:24;6.10;60.70
32506;DHT22;18955;51.224;8.482;2023-03-03T04:01:02;5.90;61.30
32506;DHT22;18955;51.224;8.482;2023-03-03T04:03:29;5.80;61.80
32506;DHT22;18955;51.224;8.482;2023-03-03T04:05:55;6.10;60.80
32506;DHT22;18955;51.224;8.482;2023-03-03T04:08:22;6.00;61.10
32506;DHT22;18955;51.224;8.482;2023-03-03T04:10:48;5.80;61.80
32506;DHT22;18955;51.224;8.482;2023-03-03T04:13:15;6.00;61.30
32506;DHT22;18955;51.224;8.482;2023-03-03T04:15:41;6.00;61.10
32506;DHT22;18955;51.224;8.482;2023-03-03T04:18:08;5.70;61.80
32506;DHT22;18955;51.224;8.482;2023-03-03T04:20:34;5.80;61.80
32506;DHT22;18955;51.224;8.482;2023-03-03T04:23:01;6.00;61.00
32506;DHT22;18955;51.224;8.482;2023-03-03T04:25:29;5.80;61.40
32506;DHT22;18955;51.224;8.482;2023-03-03T04:27:56;5.70;62.20
32506;DHT22;18955;51.224;8.482;2023-03-03T04:30:22;5.90;61.30
32506;DHT22;18955;51.224;8.482;2023-03-03T04:32:53;5.80;61.50
32506;DHT22;18955;51.224;8.482;2023-03-03T04:35:22;5.60;62.10
32506;DHT22;18955;51.224;8.482;2023-03-03T04:37:48;5.90;61.60
32506;DHT22;18955;51.224;8.482;2023-03-03T04:40:16;5.90;61.40
32506;DHT22;18955;51.224;8.482;2023-03-03T04:42:45;5.60;62.10
32506;DHT22;18955;51.224;8.482;2023-03-03T04:45:12;5.70;62.10
32506;DHT22;18955;51.224;8.482;2023-03-03T04:47:38;5.90;61.20
32506;DHT22;18955;51.224;8.482;2023-03-03T04:50:05;5.70;61.70
32506;DHT22;18955;51.224;8.482;2023-03-03T04:52:33;5.60;62.30
32506;DHT22;18955;51.224;8.482;2023-03-03T04:54:59;5.90;61.50
32506;DHT22;18955;51.224;8.482;2023-03-03T04:57:26;5.80;61.60
32506;DHT22;18955;51.224;8.482;2023-03-03T04:59:53;5.50;62.40
32506;DHT22;18955;51.224;8.482;2023-03-03T05:02:19;5.80;62.10
32506;DHT22;18955;51.224;8.482;2023-03-03T05:04:46;5.80;61.60
32506;DHT22;18955;51.224;8.482;2023-03-03T05:07:13;5.60;62.30
32506;DHT22;18955;51.224;8.482;2023-03-03T05:09:39;5.60;62.50
32506;DHT22;18955;51.224;8.482;2023-03-03T05:12:06;5.90;61.60
32506;DHT22;18955;51.224;8.482;2023-03-03T05:14:32;5.70;62.00
32506;DHT22;18955;51.224;8.482;2023-03-03T05:16:58;5.50;62.50
32506;DHT22;18955;51.224;8.482;2023-03-03T05:19:25;5.80;62.00
32506;DHT22;18955;51.224;8.482;2023-03-03T05:21:51;5.80;61.80
32506;DHT22;18955;51.224;8.482;2023-03-03T05:24:18;5.60;62.60
32506;DHT22;18955;51.224;8.482;2023-03-03T05:26:44;5.60;62.50
32506;DHT22;18955;51.224;8.482;2023-03-03T05:29:11;5.90;61.60
32506;DHT22;18955;51.224;8.482;2023-03-03T05:31:37;5.70;62.10
32506;DHT22;18955;51.224;8.482;2023-03-03T05:34:03;5.50;62.70
32506;DHT22;18955;51.224;8.482;2023-03-03T05:36:29;5.80;62.00
32506;DHT22;18955;51.224;8.482;2023-03-03T05:38:56;5.80;62.00
32506;DHT22;18955;51.224;8.482;2023-03-03T05:41:22;5.60;62.70
32506;DHT22;18955;51.224;8.482;2023-03-03T05:43:48;5.60;62.50
32506;DHT22;18955;51.224;8.482;2023-03-03T05:46:16;5.80;61.70
32506;DHT22;18955;51.224;8.482;2023-03-03T05:48:42;5.60;62.30
32506;DHT22;18955;51.224;8.482;2023-03-03T05:51:08;5.60;62.90
32506;DHT22;18955;51.224;8.482;2023-03-03T05:53:35;5.80;62.00
32506;DHT22;18955;51.224;8.482;2023-03-03T05:56:01;5.70;62.10
32506;DHT22;18955;51.224;8.482;2023-03-03T05:58:28;5.50;62.80
32506;DHT22;18955;51.224;8.482;2023-03-03T06:00:55;5.70;62.60
32506;DHT22;18955;51.224;8.482;2023-03-03T06:03:21;5.80;62.00
32506;DHT22;18955;51.224;8.482;2023-03-03T06:05:48;5.60;62.50
32506;DHT22;18955;51.224;8.482;2023-03-03T06:08:14;5.50;62.90
32506;DHT22;18955;51.224;8.482;2023-03-03T06:10:41;5.80;61.80
32506;DHT22;18955;51.224;8.482;2023-03-03T06:13:10;5.70;62.10
32506;DHT22;18955;51.224;8.482;2023-03-03T06:15:36;5.50;62.70
32506;DHT22;18955;51.224;8.482;2023-03-03T06:18:03;5.70;62.20
32506;DHT22;18955;51.224;8.482;2023-03-03T06:20:29;5.80;61.60
32506;DHT22;18955;51.224;8.482;2023-03-03T06:22:55;5.60;62.40
32506;DHT22;18955;51.224;8.482;2023-03-03T06:25:22;5.50;62.60
32506;DHT22;18955;51.224;8.482;2023-03-03T06:27:48;5.80;61.60
32506;DHT22;18955;51.224;8.482;2023-03-03T06:30:14;5.70;62.10
32506;DHT22;18955;51.224;8.482;2023-03-03T06:32:41;5.50;62.60
32506;DHT22;18955;51.224;8.482;2023-03-03T06:35:07;5.60;62.00
32506;DHT22;18955;51.224;8.482;2023-03-03T06:37:33;5.70;62.00
32506;DHT22;18955;51.224;8.482;2023-03-03T06:39:59;5.50;62.50
32506;DHT22;18955;51.224;8.482;2023-03-03T06:42:26;5.60;62.50
32506;DHT22;18955;51.224;8.482;2023-03-03T06:44:52;5.80;61.60
32506;DHT22;18955;51.224;8.482;2023-03-03T06:47:18;5.60;62.10
32506;DHT22;18955;51.224;8.482;2023-03-03T06:49:44;5.50;62.60
32506;DHT22;18955;51.224;8.482;2023-03-03T06:52:13;5.80;61.80
32506;DHT22;18955;51.224;8.482;2023-03-03T06:54:40;5.80;61.90
32506;DHT22;18955;51.224;8.482;2023-03-03T06:57:19;5.50;62.50
32506;DHT22;18955;51.224;8.482;2023-03-03T06:59:51;5.70;62.20
32506;DHT22;18955;51.224;8.482;2023-03-03T07:02:19;5.70;61.90
32506;DHT22;18955;51.224;8.482;2023-03-03T07:04:46;5.50;62.50
32506;DHT22;18955;51.224;8.482;2023-03-03T07:07:15;5.60;62.40
32506;DHT22;18955;51.224;8.482;2023-03-03T07:09:44;5.80;61.70
32506;DHT22;18955;51.224;8.482;2023-03-03T07:12:23;5.60;62.80
32506;DHT22;18955;51.224;8.482;2023-03-03T07:15:14;5.50;62.70
32506;DHT22;18955;51.224;8.482;2023-03-03T07:17:44;5.80;61.70
32506;DHT22;18955;51.224;8.482;2023-03-03T07:20:22;5.60;62.20
32506;DHT22;18955;51.224;8.482;2023-03-03T07:22:49;5.50;62.70
32506;DHT22;18955;51.224;8.482;2023-03-03T07:25:33;5.80;61.80
32506;DHT22;18955;51.224;8.482;2023-03-03T07:30:43;5.50;62.70
32506;DHT22;18955;51.224;8.482;2023-03-03T07:33:22;5.80;62.00
32506;DHT22;18955;51.224;8.482;2023-03-03T07:35:51;5.70;62.20
32506;DHT22;18955;51.224;8.482;2023-03-03T07:40:55;5.80;62.20
32506;DHT22;18955;51.224;8.482;2023-03-03T07:43:42;5.80;62.00
32506;DHT22;18955;51.224;8.482;2023-03-03T07:48:40;5.70;62.50
32506;DHT22;18955;51.224;8.482;2023-03-03T07:53:48;5.60;62.70
32506;DHT22;18955;51.224;8.482;2023-03-03T07:56:37;5.60;62.70
32506;DHT22;18955;51.224;8.482;2023-03-03T08:01:46;5.60;62.60
32506;DHT22;18955;51.224;8.482;2023-03-03T08:04:27;5.60;62.90
32506;DHT22;18955;51.224;8.482;2023-03-03T08:06:59;5.80;62.10
32506;DHT22;18955;51.224;8.482;2023-03-03T08:09:43;5.60;62.60
32506;DHT22;18955;51.224;8.482;2023-03-03T08:12:35;5.60;63.10
32506;DHT22;18955;51.224;8.482;2023-03-03T08:15:20;5.80;62.20
32506;DHT22;18955;51.224;8.482;2023-03-03T08:17:49;5.60;62.70
32506;DHT22;18955;51.224;8.482;2023-03-03T08:22:54;5.90;62.10
32506;DHT22;18955;51.224;8.482;2023-03-03T08:25:20;5.80;62.50
32506;DHT22;18955;51.224;8.482;2023-03-03T08:27:46;5.60;63.00
32506;DHT22;18955;51.224;8.482;2023-03-03T08:30:13;5.80;62.50
32506;DHT22;18955;51.224;8.482;2023-03-03T08:32:39;5.80;62.30
32506;DHT22;18955;51.224;8.482;2023-03-03T08:35:05;5.60;63.10
32506;DHT22;18955;51.224;8.482;2023-03-03T08:37:32;5.70;63.00
32506;DHT22;18955;51.224;8.482;2023-03-03T08:39:58;5.90;62.30
32506;DHT22;18955;51.224;8.482;2023-03-03T08:42:24;5.70;63.00
32506;DHT22;18955;51.224;8.482;2023-03-03T08:44:51;5.60;63.30
32506;DHT22;18955;51.224;8.482;2023-03-03T08:47:17;5.90;62.50
32506;DHT22;18955;51.224;8.482;2023-03-03T08:49:44;5.80;62.70
32506;DHT22;18955;51.224;8.482;2023-03-03T08:52:10;5.60;63.40
32506;DHT22;18955;51.224;8.482;2023-03-03T08:54:36;5.80;62.80
32506;DHT22;18955;51.224;8.482;2023-03-03T08:57:02;5.90;62.50
32506;DHT22;18955;51.224;8.482;2023-03-03T08:59:29;5.70;63.30
32506;DHT22;18955;51.224;8.482;2023-03-03T09:01:55;5.70;63.30
32506;DHT22;18955;51.224;8.482;2023-03-03T09:04:21;6.00;62.50
32506;DHT22;18955;51.224;8.482;2023-03-03T09:06:48;5.80;63.00
32506;DHT22;18955;51.224;8.482;2023-03-03T09:09:14;5.60;63.60
32506;DHT22;18955;51.224;8.482;2023-03-03T09:11:40;5.90;62.90
32506;DHT22;18955;51.224;8.482;2023-03-03T09:14:13;5.90;62.90
32506;DHT22;18955;51.224;8.482;2023-03-03T09:16:46;5.60;63.60
32506;DHT22;18955;51.224;8.482;2023-03-03T09:19:27;5.80;63.30
32506;DHT22;18955;51.224;8.482;2023-03-03T09:22:02;5.90;62.70
32506;DHT22;18955;51.224;8.482;2023-03-03T09:24:36;5.70;63.50
32506;DHT22;18955;51.224;8.482;2023-03-03T09:27:14;5.80;63.60
32506;DHT22;18955;51.224;8.482;2023-03-03T09:29:43;6.00;62.80
32506;DHT22;18955;51.224;8.482;2023-03-03T09:32:34;5.80;63.30
32506;DHT22;18955;51.224;8.482;2023-03-03T09:35:35;5.70;63.90
32506;DHT22;18955;51.224;8.482;2023-03-03T09:38:27;6.00;63.00
32506;DHT22;18955;51.224;8.482;2023-03-03T09:54:02;5.90;63.50
32506;DHT22;18955;51.224;8.482;2023-03-03T09:56:52;6.10;62.90
32506;DHT22;18955;51.224;8.482;2023-03-03T09:59:32;5.80;63.80
32506;DHT22;18955;51.224;8.482;2023-03-03T10:05:23;6.00;63.20
32506;DHT22;18955;51.224;8.482;2023-03-03T10:08:04;5.80;64.00
32506;DHT22;18955;51.224;8.482;2023-03-03T10:13:37;6.00;63.40
32506;DHT22;18955;51.224;8.482;2023-03-03T10:16:31;5.90;64.20
32506;DHT22;18955;51.224;8.482;2023-03-03T10:30:43;6.20;63.70
32506;DHT22;18955;51.224;8.482;2023-03-03T10:33:20;6.00;64.50
32506;DHT22;18955;51.224;8.482;2023-03-03T10:52:22;6.30;64.70
32506;DHT22;18955;51.224;8.482;2023-03-03T11:05:57;6.40;64.30
32506;DHT22;18955;51.224;8.482;2023-03-03T11:11:31;6.70;64.00
32506;DHT22;18955;51.224;8.482;2023-03-03T11:25:41;6.60;64.90
32506;DHT22;18955;51.224;8.482;2023-03-03T11:36:50;6.80;65.00
32506;DHT22;18955;51.224;8.482;2023-03-03T11:39:22;7.00;64.20
32506;DHT22;18955;51.224;8.482;2023-03-03T11:45:17;6.80;65.20
32506;DHT22;18955;51.224;8.482;2023-03-03T11:48:03;7.10;64.30
32506;DHT22;18955;51.224;8.482;2023-03-03T11:56:15;7.10;64.60
32506;DHT22;18955;51.224;8.482;2023-03-03T11:58:53;7.00;64.80
32506;DHT22;18955;51.224;8.482;2023-03-03T12:01:35;6.80;65.40
32506;DHT22;18955;51.224;8.482;2023-03-03T12:04:31;7.10;64.80
32506;DHT22;18955;51.224;8.482;2023-03-03T12:13:05;7.20;65.00
32506;DHT22;18955;51.224;8.482;2023-03-03T12:16:22;7.20;64.80
32506;DHT22;18955;51.224;8.482;2023-03-03T12:34:43;7.20;65.40
32506;DHT22;18955;51.224;8.482;2023-03-03T12:37:45;7.00;65.80
32506;DHT22;18955;51.224;8.482;2023-03-03T12:40:18;7.30;65.20
32506;DHT22;18955;51.224;8.482;2023-03-03T12:48:39;7.30;65.70
32506;DHT22;18955;51.224;8.482;2023-03-03T12:57:39;7.30;65.80
32506;DHT22;18955;51.224;8.482;2023-03-03T13:00:19;7.60;65.10
32506;DHT22;18955;51.224;8.482;2023-03-03T13:06:03;7.50;65.90
32506;DHT22;18955;51.224;8.482;2023-03-03T13:16:50;7.70;65.90
32506;DHT22;18955;51.224;8.482;2023-03-03T13:19:23;8.00;65.30
32506;DHT22;18955;51.224;8.482;2023-03-03T13:22:05;7.90;65.40
32506;DHT22;18955;51.224;8.482;2023-03-03T13:27:19;8.10;65.40
32506;DHT22;18955;51.224;8.482;2023-03-03T13:30:02;8.10;65.50
32506;DHT22;18955;51.224;8.482;2023-03-03T13:38:04;8.30;65.50
32506;DHT22;18955;51.224;8.482;2023-03-03T13:40:42;8.40;65.40
32506;DHT22;18955;51.224;8.482;2023-03-03T13:43:28;8.20;65.40
32506;DHT22;18955;51.224;8.482;2023-03-03T13:46:23;8.30;65.60
32506;DHT22;18955;51.224;8.482;2023-03-03T14:03:23;8.50;65.60
32506;DHT22;18955;51.224;8.482;2023-03-03T14:06:03;8.50;65.90
32506;DHT22;18955;51.224;8.482;2023-03-03T14:11:39;8.90;65.40
32506;DHT22;18955;51.224;8.482;2023-03-03T14:14:26;8.70;65.60
32506;DHT22;18955;51.224;8.482;2023-03-03T14:17:16;8.90;65.70
32506;DHT22;18955;51.224;8.482;2023-03-03T14:19:51;9.20;65.20
32506;DHT22;18955;51.224;8.482;2023-03-03T14:22:52;9.10;65.10
32506;DHT22;18955;51.224;8.482;2023-03-03T14:25:19;9.00;65.70
32506;DHT22;18955;51.224;8.482;2023-03-03T14:38:21;9.30;65.40
32506;DHT22;18955;51.224;8.482;2023-03-03T14:40:48;9.50;65.00
32506;DHT22;18955;51.224;8.482;2023-03-03T14:43:43;9.40;65.30
32506;DHT22;18955;51.224;8.482;2023-03-03T14:48:54;9.00;66.70
32506;DHT22;18955;51.224;8.482;2023-03-03T14:54:18;9.30;66.10
32506;DHT22;18955;51.224;8.482;2023-03-03T14:57:19;9.00;66.30
32506;DHT22;18955;51.224;8.482;2023-03-03T15:05:30;9.10;66.70
32506;DHT22;18955;51.224;8.482;2023-03-03T15:10:36;8.90;67.30
32506;DHT22;18955;51.224;8.482;2023-03-03T15:13:27;9.20;66.40
32506;DHT22;18955;51.224;8.482;2023-03-03T15:16:15;9.10;66.90
32506;DHT22;18955;51.224;8.482;2023-03-03T15:21:30;8.90;67.50
32506;DHT22;18955;51.224;8.482;2023-03-03T15:24:06;9.20;66.70
32506;DHT22;18955;51.224;8.482;2023-03-03T15:29:40;9.00;67.60
32506;DHT22;18955;51.224;8.482;2023-03-03T15:32:41;8.80;68.10
32506;DHT22;18955;51.224;8.482;2023-03-03T15:35:45;9.20;66.90
32506;DHT22;18955;51.224;8.482;2023-03-03T15:44:51;8.90;68.00
32506;DHT22;18955;51.224;8.482;2023-03-03T15:50:17;9.20;67.10
32506;DHT22;18955;51.224;8.482;2023-03-03T16:01:28;9.10;67.00
32506;DHT22;18955;51.224;8.482;2023-03-03T16:04:19;8.90;68.00
32506;DHT22;18955;51.224;8.482;2023-03-03T16:14:53;9.00;67.80
32506;DHT22;18955;51.224;8.482;2023-03-03T16:25:43;8.90;67.40
32506;DHT22;18955;51.224;8.482;2023-03-03T16:34:18;9.10;66.40
32506;DHT22;18955;51.224;8.482;2023-03-03T16:39:36;8.70;68.00
32506;DHT22;18955;51.224;8.482;2023-03-03T16:47:33;9.00;67.30
32506;DHT22;18955;51.224;8.482;2023-03-03T17:01:44;8.70;67.90
32506;DHT22;18955;51.224;8.482;2023-03-03T17:06:54;8.90;66.30
32506;DHT22;18955;51.224;8.482;2023-03-03T17:09:32;8.80;66.80
32506;DHT22;18955;51.224;8.482;2023-03-03T17:17:10;8.90;66.10
32506;DHT22;18955;51.224;8.482;2023-03-03T17:20:13;8.80;66.50
32506;DHT22;18955;51.224;8.482;2023-03-03T17:25:21;8.50;67.20
32506;DHT22;18955;51.224;8.482;2023-03-03T17:27:58;8.90;66.10
32506;DHT22;18955;51.224;8.482;2023-03-03T17:30:44;8.80;66.50
32506;DHT22;18955;51.224;8.482;2023-03-03T17:39:02;8.70;66.40
32506;DHT22;18955;51.224;8.482;2023-03-03T17:44:33;8.60;67.00
32506;DHT22;18955;51.224;8.482;2023-03-03T17:47:12;8.40;67.50
32506;DHT22;18955;51.224;8.482;2023-03-03T17:50:20;8.70;66.40
32506;DHT22;18955;51.224;8.482;2023-03-03T17:53:14;8.70;66.20
32506;DHT22;18955;51.224;8.482;2023-03-03T18:00:57;8.60;66.30
32506;DHT22;18955;51.224;8.482;2023-03-03T18:14:27;8.60;66.00
32506;DHT22;18955;51.224;8.482;2023-03-03T18:17:34;8.40;66.50
32506;DHT22;18955;51.224;8.482;2023-03-03T18:22:45;8.40;66.50
32506;DHT22;18955;51.224;8.482;2023-03-03T18:25:14;8.50;65.80
32506;DHT22;18955;51.224;8.482;2023-03-03T18:33:15;8.20;66.80
32506;DHT22;18955;51.224;8.482;2023-03-03T18:35:43;8.50;66.40
32506;DHT22;18955;51.224;8.482;2023-03-03T18:40:52;8.20;67.00
32506;DHT22;18955;51.224;8.482;2023-03-03T18:48:58;8.40;66.10
32506;DHT22;18955;51.224;8.482;2023-03-03T18:56:44;8.30;65.80
32506;DHT22;18955;51.224;8.482;2023-03-03T19:04:43;8.00;67.10
32506;DHT22;18955;51.224;8.482;2023-03-03T19:07:19;8.20;66.00
32506;DHT22;18955;51.224;8.482;2023-03-03T19:10:00;8.30;66.00
32506;DHT22;18955;51.224;8.482;2023-03-03T19:23:20;8.00;66.50
32506;DHT22;18955;51.224;8.482;2023-03-03T19:34:29;8.00;66.50
32506;DHT22;18955;51.224;8.482;2023-03-03T19:42:53;8.10;65.80
32506;DHT22;18955;51.224;8.482;2023-03-03T19:50:51;8.10;65.70
32506;DHT22;18955;51.224;8.482;2023-03-03T19:59:32;7.70;66.80
32506;DHT22;18955;51.224;8.482;2023-03-03T20:02:27;8.10;65.80
32506;DHT22;18955;51.224;8.482;2023-03-03T20:05:07;8.00;65.90
32506;DHT22;18955;51.224;8.482;2023-03-03T20:26:58;7.80;66.10
32506;DHT22;18955;51.224;8.482;2023-03-03T20:43:14;7.90;65.90
32506;DHT22;18955;51.224;8.482;2023-03-03T20:45:46;7.80;65.70
32506;DHT22;18955;51.224;8.482;2023-03-03T20:58:24;7.60;66.30
32506;DHT22;18955;51.224;8.482;2023-03-03T21:01:04;7.50;66.60
32506;DHT22;18955;51.224;8.482;2023-03-03T21:06:07;7.80;65.60
32506;DHT22;18955;51.224;8.482;2023-03-03T21:08:53;7.60;66.20
32506;DHT22;18955;51.224;8.482;2023-03-03T21:11:21;7.40;66.60
32506;DHT22;18955;51.224;8.482;2023-03-03T21:13:50;7.80;65.80
32506;DHT22;18955;51.224;8.482;2023-03-03T21:19:11;7.60;66.10
32506;DHT22;18955;51.224;8.482;2023-03-03T21:21:40;7.40;66.70
32506;DHT22;18955;51.224;8.482;2023-03-03T21:24:11;7.70;65.70
32506;DHT22;18955;51.224;8.482;2023-03-03T21:26:52;7.70;65.60
32506;DHT22;18955;51.224;8.482;2023-03-03T21:32:02;7.40;66.60
32506;DHT22;18955;51.224;8.482;2023-03-03T21:34:29;7.70;65.70
32506;DHT22;18955;51.224;8.482;2023-03-03T21:36:58;7.70;65.80
32506;DHT22;18955;51.224;8.482;2023-03-03T21:39:35;7.50;66.30
32506;DHT22;18955;51.224;8.482;2023-03-03T21:45:10;7.70;65.70
32506;DHT22;18955;51.224;8.482;2023-03-03T21:47:36;7.60;65.70
32506;DHT22;18955;51.224;8.482;2023-03-03T21:50:02;7.40;66.40
32506;DHT22;18955;51.224;8.482;2023-03-03T21:52:29;7.30;66.70
32506;DHT22;18955;51.224;8.482;2023-03-03T21:54:55;7.60;65.50
32506;DHT22;18955;51.224;8.482;2023-03-03T21:57:21;7.60;65.70
32506;DHT22;18955;51.224;8.482;2023-03-03T21:59:48;7.40;66.40
32506;DHT22;18955;51.224;8.482;2023-03-03T22:02:14;7.30;66.60
32506;DHT22;18955;51.224;8.482;2023-03-03T22:04:40;7.60;65.70
32506;DHT22;18955;51.224;8.482;2023-03-03T22:07:07;7.60;65.80
32506;DHT22;18955;51.224;8.482;2023-03-03T22:09:34;7.40;66.30
32506;DHT22;18955;51.224;8.482;2023-03-03T22:12:01;7.30;66.70
32506;DHT22;18955;51.224;8.482;2023-03-03T22:14:27;7.60;65.80
32506;DHT22;18955;51.224;8.482;2023-03-03T22:16:53;7.60;65.70
32506;DHT22;18955;51.224;8.482;2023-03-03T22:19:20;7.40;66.20
32506;DHT22;18955;51.224;8.482;2023-03-03T22:21:46;7.30;66.70
32506;DHT22;18955;51.224;8.482;2023-03-03T22:24:13;7.50;66.00
32506;DHT22;18955;51.224;8.482;2023-03-03T22:26:39;7.50;65.70
32506;DHT22;18955;51.224;8.482;2023-03-03T22:29:08;7.40;66.30
32506;DHT22;18955;51.224;8.482;2023-03-03T22:31:35;7.20;66.60
32506;DHT22;18955;51.224;8.482;2023-03-03T22:34:02;7.50;66.00
32506;DHT22;18955;51.224;8.482;2023-03-03T22:36:28;7.60;65.60
32506;DHT22;18955;51.224;8.482;2023-03-03T22:38:54;7.40;66.10
32506;DHT22;18955;51.224;8.482;2023-03-03T22:41:21;7.20;66.70
32506;DHT22;18955;51.224;8.482;2023-03-03T22:43:47;7.50;66.20
32506;DHT22;18955;51.224;8.482;2023-03-03T22:46:13;7.50;65.40
32506;DHT22;18955;51.224;8.482;2023-03-03T22:48:40;7.40;66.10
32506;DHT22;18955;51.224;8.482;2023-03-03T22:51:06;7.20;66.70
32506;DHT22;18955;51.224;8.482;2023-03-03T22:53:32;7.40;66.30
32506;DHT22;18955;51.224;8.482;2023-03-03T22:55:58;7.50;65.60
32506;DHT22;18955;51.224;8.482;2023-03-03T22:58:25;7.40;66.10
32506;DHT22;18955;51.224;8.482;2023-03-03T23:00:52;7.20;67.30
32506;DHT22;18955;51.224;8.482;2023-03-03T23:03:19;7.30;66.30
32506;DHT22;18955;51.224;8.482;2023-03-03T23:05:48;7.50;65.40
32506;DHT22;18955;51.224;8.482;2023-03-03T23:08:16;7.40;66.00
32506;DHT22;18955;51.224;8.482;2023-03-03T23:10:42;7.20;66.60
32506;DHT22;18955;51.224;8.482;2023-03-03T23:13:08;7.30;66.40
32506;DHT22;18955;51.224;8.482;2023-03-03T23:15:35;7.50;65.40
32506;DHT22;18955;51.224;8.482;2023-03-03T23:18:01;7.40;66.00
32506;DHT22;18955;51.224;8.482;2023-03-03T23:20:29;7.20;66.60
32506;DHT22;18955;51.224;8.482;2023-03-03T23:22:57;7.30;66.60
32506;DHT22;18955;51.224;8.482;2023-03-03T23:25:24;7.50;65.50
32506;DHT22;18955;51.224;8.482;2023-03-03T23:27:52;7.40;66.00
32506;DHT22;18955;51.224;8.482;2023-03-03T23:30:19;7.20;66.60